Archival Weather

Lamerd

Lamerd, Iran (OISR)

Report from: Saturday, April 1, 2023 1:00 PM UTC
Current time: Wednesday, April 24, 2024 5:56 PM UTC

Current weather – Weather history – Daily summaries
Weather forecast

Temperature29.0°C (84.2°F)
Heat index28.3°C (82.9°F)
Dew point11.0°C (51.8°F)
Winds 12 kts (6.2 m/s, 13.8 mph) West-Northwest (300°)
Clouds Sky clear
Altimeter29.82 in.Hg (1010 mB)
Relative humidity33 %
Density altitude1,909 ft. (582 m)
Remarks Ceiling and visibility OK
No significant changes expected in the next two hours
Flight conditions Visual Meteorological Conditions
Raw dataOISR 011300Z 30012KT CAVOK 29/11 Q1009 A2982 NOSIG
An error has occurred. This application may no longer respond until reloaded. Reload 🗙